createdAt,value
2022-12-04T00:02:10.903Z,31.50
2022-12-04T00:04:37.341Z,31.13
2022-12-04T00:07:03.889Z,30.48
2022-12-04T00:09:30.298Z,29.60
2022-12-04T00:11:56.590Z,30.80
2022-12-04T00:14:23.024Z,25.35
2022-12-04T00:16:50.367Z,28.48
2022-12-04T00:19:17.018Z,24.10
2022-12-04T00:21:45.095Z,25.50
2022-12-04T00:24:11.507Z,28.05
2022-12-04T00:26:37.775Z,24.15
2022-12-04T00:29:04.377Z,26.33
2022-12-04T00:31:31.090Z,27.02
2022-12-04T00:33:58.552Z,25.95
2022-12-04T00:36:25.912Z,24.23
2022-12-04T00:38:52.567Z,26.13
2022-12-04T00:41:20.470Z,26.60
2022-12-04T00:43:46.997Z,32.28
2022-12-04T00:46:13.508Z,26.42
2022-12-04T00:48:40.147Z,26.98
2022-12-04T00:51:08.404Z,27.30
2022-12-04T00:53:34.781Z,29.10
2022-12-04T00:56:05.383Z,25.30
2022-12-04T00:58:31.734Z,26.65
2022-12-04T01:01:17.055Z,25.63
2022-12-04T01:03:43.475Z,28.33
2022-12-04T01:06:20.932Z,27.80
2022-12-04T01:08:47.600Z,26.50
2022-12-04T01:11:13.972Z,26.88
2022-12-04T01:13:40.296Z,26.98
2022-12-04T01:16:06.640Z,28.73
2022-12-04T01:18:32.985Z,28.40
2022-12-04T01:20:59.339Z,29.00
2022-12-04T01:23:25.707Z,28.00
2022-12-04T01:25:53.226Z,26.15
2022-12-04T01:28:19.638Z,28.13
2022-12-04T01:30:55.585Z,27.27
2022-12-04T01:33:21.954Z,25.40
2022-12-04T01:35:58.839Z,28.42
2022-12-04T01:38:25.594Z,26.85
2022-12-04T01:40:52.012Z,25.70
2022-12-04T01:43:18.782Z,25.98
2022-12-04T01:45:54.795Z,28.02
2022-12-04T01:48:27.941Z,27.40
2022-12-04T01:50:57.909Z,24.08
2022-12-04T01:53:24.526Z,22.17
2022-12-04T01:55:50.968Z,24.38
2022-12-04T01:58:20.167Z,25.10
2022-12-04T02:00:51.520Z,30.73
2022-12-04T02:03:18.134Z,24.13
2022-12-04T02:05:44.486Z,25.45
2022-12-04T02:08:11.056Z,26.00
2022-12-04T02:10:57.703Z,24.45
2022-12-04T02:13:41.500Z,25.20
2022-12-04T02:16:11.309Z,24.50
2022-12-04T02:18:46.365Z,22.90
2022-12-04T02:21:26.162Z,26.85
2022-12-04T02:23:55.582Z,25.88
2022-12-04T02:26:32.568Z,26.52
2022-12-04T02:29:17.847Z,26.40
2022-12-04T02:31:49.509Z,26.27
2022-12-04T02:34:25.319Z,25.30
2022-12-04T02:37:01.756Z,25.38
2022-12-04T02:39:34.303Z,27.05
2022-12-04T02:42:04.076Z,26.05
2022-12-04T02:44:39.680Z,22.60
2022-12-04T02:47:09.874Z,24.60
2022-12-04T02:49:45.525Z,26.10
2022-12-04T02:52:13.002Z,26.52
2022-12-04T02:54:41.998Z,25.65
2022-12-04T02:57:11.231Z,27.27
2022-12-04T02:59:39.261Z,26.05
2022-12-04T03:02:17.077Z,29.05
2022-12-04T03:04:45.870Z,25.88
2022-12-04T03:07:17.864Z,25.13
2022-12-04T03:10:04.456Z,25.75
2022-12-04T03:12:38.353Z,26.17
2022-12-04T03:15:07.393Z,23.45
2022-12-04T03:17:36.269Z,25.02
2022-12-04T03:20:08.258Z,23.88
2022-12-04T03:22:36.027Z,25.63
2022-12-04T03:25:03.383Z,25.52
2022-12-04T03:27:29.692Z,25.95
2022-12-04T03:30:02.714Z,26.10
2022-12-04T03:32:47.857Z,27.08
2022-12-04T03:35:25.025Z,25.08
2022-12-04T03:37:57.960Z,26.95
2022-12-04T03:40:43.155Z,15.70
2022-12-04T03:43:31.360Z,28.38
2022-12-04T03:46:12.723Z,23.95
2022-12-04T03:48:59.768Z,21.13
2022-12-04T03:51:29.763Z,23.63
2022-12-04T03:53:58.030Z,26.40
2022-12-04T03:56:29.643Z,27.15
2022-12-04T03:58:58.664Z,24.52
2022-12-04T04:01:27.595Z,24.92
2022-12-04T04:03:55.276Z,25.77
2022-12-04T04:06:32.783Z,25.50
2022-12-04T04:09:01.688Z,26.23
2022-12-04T04:11:31.598Z,22.63
2022-12-04T04:14:22.121Z,25.23
2022-12-04T04:17:11.432Z,24.83
2022-12-04T04:19:57.548Z,26.08
2022-12-04T04:22:43.732Z,25.13
2022-12-04T04:25:12.745Z,21.92
2022-12-04T04:27:39.121Z,25.77
2022-12-04T04:30:06.156Z,27.52
2022-12-04T04:32:39.454Z,23.63
2022-12-04T04:35:19.372Z,27.30
2022-12-04T04:37:51.733Z,22.55
2022-12-04T04:40:28.147Z,25.23
2022-12-04T04:42:59.892Z,24.38
2022-12-04T04:45:29.365Z,29.58
2022-12-04T04:48:02.338Z,25.90
2022-12-04T04:50:29.256Z,25.42
2022-12-04T04:52:58.735Z,28.55
2022-12-04T04:55:25.338Z,24.58
2022-12-04T04:57:51.692Z,25.58
2022-12-04T05:00:20.514Z,26.10
2022-12-04T05:02:48.546Z,24.80
2022-12-04T05:05:14.954Z,29.98
2022-12-04T05:07:41.362Z,28.08
2022-12-04T05:10:08.386Z,28.75
2022-12-04T05:12:34.771Z,27.02
2022-12-04T05:15:01.124Z,27.23
2022-12-04T05:17:27.433Z,24.13
2022-12-04T05:19:54.192Z,25.67
2022-12-04T05:22:22.041Z,24.13
2022-12-04T05:24:48.548Z,28.88
2022-12-04T05:27:14.972Z,25.35
2022-12-04T05:29:41.400Z,27.42
2022-12-04T05:32:07.734Z,26.13
2022-12-04T05:34:34.052Z,26.27
2022-12-04T05:37:00.416Z,29.40
2022-12-04T05:39:26.750Z,24.05
2022-12-04T05:41:53.062Z,26.50
2022-12-04T05:44:19.440Z,25.30
2022-12-04T05:46:45.850Z,26.10
2022-12-04T05:49:12.285Z,26.88
2022-12-04T05:51:38.663Z,30.00
2022-12-04T05:54:05.011Z,28.38
2022-12-04T05:56:31.324Z,30.83
2022-12-04T05:58:57.645Z,27.88
2022-12-04T06:01:24.126Z,27.45
2022-12-04T06:03:50.684Z,25.38
2022-12-04T06:06:21.904Z,26.35
2022-12-04T06:08:49.751Z,26.00
2022-12-04T06:11:26.923Z,26.80
2022-12-04T06:13:53.547Z,25.00
2022-12-04T06:16:21.732Z,25.00
2022-12-04T06:18:52.259Z,23.45
2022-12-04T06:21:18.777Z,22.92
2022-12-04T06:23:45.088Z,25.92
2022-12-04T06:26:11.514Z,28.73
2022-12-04T06:28:37.864Z,25.85
2022-12-04T06:31:05.302Z,24.33
2022-12-04T06:33:31.742Z,24.48
2022-12-04T06:35:58.986Z,20.63
2022-12-04T06:38:25.447Z,23.95
2022-12-04T06:40:51.821Z,21.67
2022-12-04T06:43:18.111Z,21.08
2022-12-04T06:45:44.480Z,17.90
2022-12-04T06:48:10.810Z,20.50
2022-12-04T06:50:37.152Z,18.90
2022-12-04T06:53:08.135Z,21.80
2022-12-04T06:55:34.936Z,18.38
2022-12-04T06:58:01.273Z,17.25
2022-12-04T07:00:27.602Z,18.50
2022-12-04T07:02:53.963Z,15.90
2022-12-04T07:05:20.350Z,17.50
2022-12-04T07:07:46.745Z,15.68
2022-12-04T07:10:13.056Z,18.45
2022-12-04T07:12:39.432Z,19.05
2022-12-04T07:15:06.139Z,15.93
2022-12-04T07:17:32.484Z,15.55
2022-12-04T07:19:58.991Z,19.30
2022-12-04T07:22:26.240Z,19.33
2022-12-04T07:24:52.615Z,18.52
2022-12-04T07:27:18.953Z,17.35
2022-12-04T07:29:45.249Z,16.15
2022-12-04T07:32:11.638Z,17.38
2022-12-04T07:34:38.004Z,14.85
2022-12-04T07:37:04.311Z,16.00
2022-12-04T07:39:30.663Z,16.13
2022-12-04T07:41:57.047Z,16.85
2022-12-04T07:44:23.359Z,15.60
2022-12-04T07:46:49.704Z,16.27
2022-12-04T07:49:16.278Z,15.40
2022-12-04T07:51:42.569Z,13.68
2022-12-04T07:54:09.266Z,15.90
2022-12-04T07:56:35.575Z,14.52
2022-12-04T07:59:02.057Z,16.73
2022-12-04T08:01:28.606Z,15.88
2022-12-04T08:03:56.488Z,13.73
2022-12-04T08:06:23.608Z,17.02
2022-12-04T08:08:50.605Z,17.50
2022-12-04T08:11:19.290Z,17.02
2022-12-04T08:13:45.811Z,16.30
2022-12-04T08:16:12.863Z,19.45
2022-12-04T08:18:39.844Z,16.20
2022-12-04T08:21:07.788Z,17.63
2022-12-04T08:23:34.665Z,18.98
2022-12-04T08:26:01.431Z,17.52
2022-12-04T08:28:27.832Z,16.92
2022-12-04T08:30:54.276Z,17.45
2022-12-04T08:33:21.076Z,16.88
2022-12-04T08:35:47.387Z,18.70
2022-12-04T08:38:13.708Z,20.25
2022-12-04T08:40:40.205Z,19.20
2022-12-04T08:43:06.491Z,16.45
2022-12-04T08:45:32.872Z,19.50
2022-12-04T08:47:59.179Z,17.70
2022-12-04T08:50:25.459Z,19.00
2022-12-04T08:52:51.793Z,24.15
2022-12-04T08:55:18.088Z,19.13
2022-12-04T08:57:44.380Z,17.77
2022-12-04T09:00:12.809Z,19.45
2022-12-04T09:02:39.230Z,18.60
2022-12-04T09:05:05.644Z,16.60
2022-12-04T09:07:32.107Z,17.38
2022-12-04T09:09:58.817Z,18.77
2022-12-04T09:12:25.365Z,18.80
2022-12-04T09:14:51.888Z,19.73
2022-12-04T09:17:18.301Z,18.45
2022-12-04T09:19:44.659Z,16.83
2022-12-04T09:22:11.039Z,17.55
2022-12-04T09:24:37.340Z,17.90
2022-12-04T09:27:03.688Z,16.60
2022-12-04T09:29:30.036Z,18.48
2022-12-04T09:31:56.357Z,19.23
2022-12-04T09:34:22.694Z,17.10
2022-12-04T09:36:49.967Z,16.73
2022-12-04T09:39:16.303Z,14.13
2022-12-04T09:41:50.840Z,22.23
2022-12-04T09:44:29.441Z,19.55
2022-12-04T09:47:00.525Z,18.45
2022-12-04T09:49:38.229Z,19.10
2022-12-04T09:52:09.171Z,18.60
2022-12-04T09:54:39.114Z,16.65
2022-12-04T09:57:14.741Z,19.13
2022-12-04T09:59:41.270Z,16.27
2022-12-04T10:02:10.612Z,18.27
2022-12-04T10:04:36.994Z,17.55
2022-12-04T10:07:22.179Z,19.02
2022-12-04T10:10:02.203Z,17.00
2022-12-04T10:12:47.424Z,16.70
2022-12-04T10:15:13.730Z,18.85
2022-12-04T10:17:43.312Z,17.15
2022-12-04T10:20:09.619Z,15.98
2022-12-04T10:22:35.889Z,15.70
2022-12-04T10:25:06.709Z,17.77
2022-12-04T10:27:39.748Z,16.55
2022-12-04T10:30:38.674Z,16.15
2022-12-04T10:33:19.309Z,20.02
2022-12-04T10:35:47.591Z,22.13
2022-12-04T10:38:34.171Z,16.92
2022-12-04T10:41:05.830Z,20.52
2022-12-04T10:43:40.087Z,17.35
2022-12-04T10:46:08.742Z,16.27
2022-12-04T10:48:37.101Z,17.15
2022-12-04T10:51:03.672Z,15.38
2022-12-04T10:53:31.620Z,16.85
2022-12-04T10:56:07.841Z,17.77
2022-12-04T10:58:34.202Z,17.88
2022-12-04T11:01:02.295Z,17.77
2022-12-04T11:03:29.184Z,17.40
2022-12-04T11:06:00.655Z,18.15
2022-12-04T11:08:31.077Z,18.10
2022-12-04T11:10:59.956Z,16.67
2022-12-04T11:13:26.980Z,17.00
2022-12-04T11:15:56.985Z,20.20
2022-12-04T11:18:31.353Z,17.63
2022-12-04T11:21:00.805Z,18.00
2022-12-04T11:23:29.728Z,16.35
2022-12-04T11:26:03.743Z,17.27
2022-12-04T11:28:47.618Z,18.15
2022-12-04T11:31:18.946Z,19.70
2022-12-04T11:33:57.295Z,17.08
2022-12-04T11:36:31.370Z,19.63
2022-12-04T11:39:06.585Z,15.40
2022-12-04T11:41:33.303Z,17.35
2022-12-04T11:44:00.784Z,15.82
2022-12-04T11:46:29.313Z,15.45
2022-12-04T11:48:55.827Z,15.05
2022-12-04T11:51:40.552Z,16.02
2022-12-04T11:54:12.693Z,17.20
2022-12-04T11:56:42.649Z,17.00
2022-12-04T11:59:11.963Z,19.30
2022-12-04T12:01:56.488Z,21.23
2022-12-04T12:04:24.594Z,17.00
2022-12-04T12:06:59.677Z,16.08
2022-12-04T12:09:30.224Z,16.65
2022-12-04T12:12:01.507Z,13.68
2022-12-04T12:14:46.253Z,15.27
2022-12-04T12:17:15.931Z,17.13
2022-12-04T12:20:04.396Z,16.50
2022-12-04T12:22:39.912Z,17.60
2022-12-04T12:25:06.198Z,18.10
2022-12-04T12:27:39.276Z,14.65
2022-12-04T12:30:08.925Z,16.38
2022-12-04T12:32:47.406Z,15.32
2022-12-04T12:35:27.102Z,19.77
2022-12-04T12:37:54.838Z,22.55
2022-12-04T12:40:27.368Z,17.13
2022-12-04T12:42:58.439Z,18.08
2022-12-04T12:45:44.472Z,18.25
2022-12-04T12:48:25.395Z,19.38
2022-12-04T12:51:14.974Z,18.52
2022-12-04T12:53:42.892Z,18.80
2022-12-04T12:56:13.178Z,17.00
2022-12-04T12:58:49.678Z,17.92
2022-12-04T13:01:22.125Z,15.93
2022-12-04T13:04:23.997Z,16.40
2022-12-04T13:06:56.732Z,19.38
2022-12-04T13:09:29.775Z,16.48
2022-12-04T13:12:01.533Z,17.17
2022-12-04T13:14:27.841Z,17.92
2022-12-04T13:16:57.500Z,18.55
2022-12-04T13:19:43.293Z,16.73
2022-12-04T13:22:28.518Z,18.35
2022-12-04T13:24:57.958Z,16.88
2022-12-04T13:27:33.371Z,18.55
2022-12-04T13:30:18.447Z,16.50
2022-12-04T13:32:47.925Z,17.52
2022-12-04T13:35:14.280Z,20.02
2022-12-04T13:37:46.552Z,17.50
2022-12-04T13:40:28.282Z,17.05
2022-12-04T13:43:12.602Z,17.00
2022-12-04T13:45:39.376Z,16.52
2022-12-04T13:48:06.066Z,16.00
2022-12-04T13:50:32.374Z,14.77
2022-12-04T13:52:58.875Z,17.85
2022-12-04T13:55:25.301Z,14.75
2022-12-04T13:57:56.121Z,16.00
2022-12-04T14:00:33.231Z,16.95
2022-12-04T14:03:01.174Z,16.90
2022-12-04T14:05:41.431Z,16.55
2022-12-04T14:08:21.610Z,16.60
2022-12-04T14:11:05.940Z,18.70
2022-12-04T14:13:56.108Z,17.65
2022-12-04T14:16:25.803Z,17.45
2022-12-04T14:18:59.306Z,17.00
2022-12-04T14:21:25.796Z,14.90
2022-12-04T14:23:53.181Z,18.70
2022-12-04T14:26:37.286Z,17.80
2022-12-04T14:29:30.001Z,17.00
2022-12-04T14:31:58.929Z,16.80
2022-12-04T14:34:31.720Z,18.00
2022-12-04T14:37:00.537Z,17.77
2022-12-04T14:39:33.038Z,18.27
2022-12-04T14:42:13.711Z,16.70
2022-12-04T14:44:40.298Z,16.05
2022-12-04T14:47:29.315Z,17.83
2022-12-04T14:49:58.655Z,15.93
2022-12-04T14:52:31.335Z,19.08
2022-12-04T14:55:05.865Z,17.67
2022-12-04T14:57:35.320Z,18.95
2022-12-04T15:00:02.273Z,17.42
2022-12-04T15:02:34.285Z,20.88
2022-12-04T15:05:02.096Z,20.55
2022-12-04T15:07:30.007Z,19.65
2022-12-04T15:10:16.162Z,21.50
2022-12-04T15:12:52.884Z,20.50
2022-12-04T15:15:24.930Z,19.25
2022-12-04T15:17:58.426Z,20.98
2022-12-04T15:20:24.834Z,20.42
2022-12-04T15:22:51.251Z,19.45
2022-12-04T15:25:19.460Z,20.70
2022-12-04T15:27:47.546Z,18.20
2022-12-04T15:30:35.346Z,21.35
2022-12-04T15:33:01.799Z,17.67
2022-12-04T15:35:30.889Z,18.23
2022-12-04T15:37:57.536Z,18.02
2022-12-04T15:40:25.712Z,19.13
2022-12-04T15:42:52.422Z,20.05
2022-12-04T15:45:18.680Z,19.80
2022-12-04T15:47:44.936Z,21.73
2022-12-04T15:50:17.413Z,20.42
2022-12-04T15:53:06.464Z,21.20
2022-12-04T15:55:34.332Z,21.48
2022-12-04T15:58:08.901Z,18.42
2022-12-04T16:00:39.098Z,21.30
2022-12-04T16:03:23.099Z,24.13
2022-12-04T16:08:28.956Z,18.42
2022-12-04T16:10:56.774Z,19.88
2022-12-04T16:13:27.871Z,22.60
2022-12-04T16:15:55.568Z,20.27
2022-12-04T16:18:21.912Z,18.00
2022-12-04T16:20:48.269Z,17.70
2022-12-04T16:23:15.800Z,18.60
2022-12-04T16:25:42.175Z,24.58
2022-12-04T16:28:08.493Z,19.65
2022-12-04T16:30:35.592Z,20.40
2022-12-04T16:33:01.936Z,22.58
2022-12-04T16:35:30.996Z,22.45
2022-12-04T16:37:57.264Z,24.42
2022-12-04T16:40:23.593Z,23.70
2022-12-04T16:42:49.903Z,24.05
2022-12-04T16:45:24.855Z,27.52
2022-12-04T16:47:51.788Z,22.25
2022-12-04T16:50:18.168Z,24.40
2022-12-04T16:52:44.628Z,28.63
2022-12-04T16:55:21.539Z,24.67
2022-12-04T16:57:47.983Z,25.42
2022-12-04T17:00:15.077Z,25.98
2022-12-04T17:02:41.608Z,27.42
2022-12-04T17:05:08.487Z,33.92
2022-12-04T17:07:34.846Z,35.80
2022-12-04T17:10:01.139Z,37.05
2022-12-04T17:12:27.678Z,32.22
2022-12-04T17:14:54.081Z,28.42
2022-12-04T17:17:20.537Z,26.33
2022-12-04T17:19:46.856Z,26.08
2022-12-04T17:22:14.166Z,25.75
2022-12-04T17:24:47.182Z,28.98
2022-12-04T17:27:15.565Z,34.47
2022-12-04T17:29:41.901Z,38.55
2022-12-04T17:32:08.257Z,42.17
2022-12-04T17:34:34.595Z,45.10
2022-12-04T17:37:00.968Z,43.53
2022-12-04T17:39:27.282Z,39.55
2022-12-04T17:41:53.665Z,39.03
2022-12-04T17:44:19.989Z,45.92
2022-12-04T17:46:46.322Z,41.72
2022-12-04T17:49:12.668Z,39.75
2022-12-04T17:51:39.280Z,38.58
2022-12-04T17:54:05.784Z,34.55
2022-12-04T17:56:32.448Z,34.28
2022-12-04T17:58:58.796Z,33.33
2022-12-04T18:01:26.490Z,32.60
2022-12-04T18:03:57.143Z,32.95
2022-12-04T18:06:23.471Z,30.67
2022-12-04T18:08:50.597Z,35.30
2022-12-04T18:11:21.168Z,33.58
2022-12-04T18:13:48.232Z,33.90
2022-12-04T18:16:14.628Z,38.05
2022-12-04T18:18:41.191Z,37.88
2022-12-04T18:21:11.172Z,38.72
2022-12-04T18:23:40.023Z,38.47
2022-12-04T18:26:06.935Z,36.30
2022-12-04T18:28:34.039Z,34.53
2022-12-04T18:31:03.924Z,32.85
2022-12-04T18:33:31.068Z,37.33
2022-12-04T18:35:57.773Z,37.20
2022-12-04T18:38:24.700Z,36.38
2022-12-04T18:40:51.610Z,31.48
2022-12-04T18:43:18.247Z,28.98
2022-12-04T18:45:44.895Z,29.88
2022-12-04T18:48:12.014Z,27.98
2022-12-04T18:50:38.726Z,27.40
2022-12-04T18:53:05.045Z,28.00
2022-12-04T18:55:34.580Z,26.00
2022-12-04T18:58:00.858Z,29.95
2022-12-04T19:00:27.128Z,29.90
2022-12-04T19:02:53.456Z,33.25
2022-12-04T19:05:19.773Z,35.75
2022-12-04T19:07:48.321Z,37.00
2022-12-04T19:10:14.623Z,37.97
2022-12-04T19:12:41.138Z,41.38
2022-12-04T19:15:07.813Z,41.45
2022-12-04T19:17:34.267Z,41.00
2022-12-04T19:20:00.767Z,41.22
2022-12-04T19:22:28.674Z,42.75
2022-12-04T19:24:55.060Z,44.22
2022-12-04T19:27:21.409Z,42.17
2022-12-04T19:29:47.885Z,49.40
2022-12-04T19:32:14.244Z,43.40
2022-12-04T19:34:40.565Z,41.30
2022-12-04T19:37:07.493Z,39.28
2022-12-04T19:39:33.909Z,40.38
2022-12-04T19:42:00.256Z,44.05
2022-12-04T19:44:47.751Z,43.10
2022-12-04T19:47:12.904Z,44.90
2022-12-04T19:49:39.183Z,41.95
2022-12-04T19:52:06.502Z,43.95
2022-12-04T19:54:32.836Z,46.03
2022-12-04T19:56:59.256Z,44.88
2022-12-04T19:59:25.503Z,45.35
2022-12-04T20:01:51.871Z,45.00
2022-12-04T20:04:18.219Z,45.72
2022-12-04T20:06:45.440Z,42.95
2022-12-04T20:09:13.516Z,43.78
2022-12-04T20:11:40.526Z,42.22
2022-12-04T20:14:07.080Z,42.42
2022-12-04T20:16:34.036Z,47.20
2022-12-04T20:19:01.481Z,48.10
2022-12-04T20:21:32.286Z,54.20
2022-12-04T20:24:00.416Z,49.33
2022-12-04T20:26:28.509Z,48.28
2022-12-04T20:28:55.718Z,46.08
2022-12-04T20:31:23.391Z,48.63
2022-12-04T20:33:50.778Z,50.45
2022-12-04T20:36:18.759Z,52.92
2022-12-04T20:38:45.204Z,47.05
2022-12-04T20:41:16.009Z,45.47
2022-12-04T20:43:42.722Z,45.03
2022-12-04T20:46:19.728Z,38.15
2022-12-04T20:48:49.663Z,41.63
2022-12-04T20:51:17.385Z,42.90
2022-12-04T20:53:43.933Z,42.17
2022-12-04T20:56:10.232Z,42.08
2022-12-04T20:58:36.731Z,40.42
2022-12-04T21:01:07.431Z,42.10
2022-12-04T21:03:33.797Z,42.83
2022-12-04T21:06:00.191Z,42.03
2022-12-04T21:08:45.501Z,42.42
2022-12-04T21:11:11.823Z,42.55
2022-12-04T21:13:56.816Z,41.33
2022-12-04T21:16:23.257Z,43.92
2022-12-04T21:18:49.632Z,40.42
2022-12-04T21:21:16.287Z,40.13
2022-12-04T21:23:42.637Z,37.92
2022-12-04T21:26:08.932Z,44.20
2022-12-04T21:28:35.213Z,43.75
2022-12-04T21:31:05.279Z,41.97
2022-12-04T21:33:34.779Z,42.25
2022-12-04T21:36:08.669Z,46.35
2022-12-04T21:38:35.386Z,42.95
2022-12-04T21:41:02.338Z,40.00
2022-12-04T21:43:29.762Z,40.10
2022-12-04T21:46:05.848Z,42.35
2022-12-04T21:48:35.488Z,42.78
2022-12-04T21:51:05.924Z,43.22
2022-12-04T21:53:32.270Z,40.38
2022-12-04T21:55:58.570Z,39.47
2022-12-04T21:58:25.614Z,35.50
2022-12-04T22:00:52.272Z,36.25
2022-12-04T22:03:18.714Z,36.17
2022-12-04T22:05:45.054Z,30.77
2022-12-04T22:08:12.425Z,31.60
2022-12-04T22:10:47.883Z,32.50
2022-12-04T22:13:14.243Z,35.58
2022-12-04T22:15:41.830Z,33.80
2022-12-04T22:18:08.709Z,36.30
2022-12-04T22:20:37.910Z,37.45
2022-12-04T22:23:04.542Z,32.03
2022-12-04T22:25:31.099Z,34.35
2022-12-04T22:27:57.956Z,32.40
2022-12-04T22:30:25.177Z,38.15
2022-12-04T22:32:51.735Z,34.03
2022-12-04T22:35:18.085Z,36.53
2022-12-04T22:37:44.865Z,33.42
2022-12-04T22:40:11.752Z,32.20
2022-12-04T22:42:38.032Z,35.50
2022-12-04T22:45:04.648Z,34.58
2022-12-04T22:47:31.337Z,34.08
2022-12-04T22:49:57.963Z,31.50
2022-12-04T22:52:24.466Z,39.10
2022-12-04T22:54:51.237Z,39.45
2022-12-04T22:57:17.766Z,35.42
2022-12-04T22:59:44.699Z,34.00
2022-12-04T23:02:10.975Z,33.78
2022-12-04T23:04:37.353Z,37.50
2022-12-04T23:07:03.777Z,40.08
2022-12-04T23:09:30.154Z,40.08
2022-12-04T23:11:56.666Z,36.10
2022-12-04T23:14:23.501Z,40.38
2022-12-04T23:16:50.258Z,34.80
2022-12-04T23:19:17.553Z,35.78
2022-12-04T23:21:44.477Z,36.78
2022-12-04T23:24:11.265Z,35.38
2022-12-04T23:26:39.006Z,35.40
2022-12-04T23:29:23.379Z,31.42
2022-12-04T23:31:51.825Z,32.22
2022-12-04T23:34:18.178Z,34.35
2022-12-04T23:36:44.503Z,28.23
2022-12-04T23:39:10.817Z,29.13
2022-12-04T23:41:37.116Z,30.65
2022-12-04T23:44:03.607Z,33.80
2022-12-04T23:46:32.215Z,33.25
2022-12-04T23:48:59.368Z,31.13
2022-12-04T23:51:26.038Z,30.92
2022-12-04T23:53:52.432Z,31.23
2022-12-04T23:56:20.106Z,33.15
2022-12-04T23:58:47.559Z,32.72
